Latest Weather Observations for Warragul (Nilma North)

IDV60801

Issued at 5:03 pm EST Tuesday 30 May 2017 (issued every 30 minutes, with the page automatically refreshed every 10 minutes)

About weather observations | Map of weather stations | Latest weather observations for VIC | Other Formats
Station Details ID: 085313 Name: NILMA NORTH (WARRAGUL) Lat: -38.13 Lon: 145.99 Height: 134.11 m
Data from the previous 72 hours. | See also: Recent months for locations in Victoria
Date/Time
EST
Temp
°C
App
Temp
°C
Dew
Point
°C
Rel
Hum
%
Delta-T
°C
Wind Press
QNH
hPa
Press
MSL
hPa
Rain since
9am
mm
Dir  Spd
km/h
Gust
km/h
Spd
kts
Gust
kts
30/05:00pm 7.8 4.5 6.3 90 0.7 WNW 13 22 7 12 1024.1 1024.2 11.8
30/04:30pm 7.8 5.2 6.1 89 0.8 WNW 9 13 5 7 1023.7 1023.8 11.4
30/04:00pm 8.5 5.5 6.0 84 1.1 W 11 17 6 9 1023.5 1023.6 11.2
30/03:30pm 7.8 4.7 5.6 86 1.0 W 11 22 6 12 1023.3 1023.4 11.2
30/03:00pm 9.1 5.2 5.3 77 1.7 W 15 22 8 12 1022.3 1022.3 9.6
30/02:30pm 8.7 3.2 6.0 83 1.2 W 24 33 13 18 1022.3 1022.3 9.6
30/02:00pm 9.2 4.8 6.5 83 1.3 W 19 32 10 17 1021.8 1021.8 9.2
30/01:30pm 10.8 7.0 7.5 80 1.6 W 17 28 9 15 1021.4 1021.4 9.0
30/01:00pm 9.5 6.1 7.6 88 0.9 W 15 26 8 14 1021.2 1021.3 9.0
30/12:30pm 8.7 3.9 7.2 90 0.7 W 22 35 12 19 1021.2 1021.3 8.8
30/12:17pm 8.8 3.3 7.6 92 0.6 WNW 26 50 14 27 1020.9 1021.0 8.6
30/12:00pm 9.8 6.4 9.0 95 0.4 WNW 17 24 9 13 1020.9 1021.0 7.8
30/11:30am 9.4 5.9 8.6 95 0.4 WNW 17 32 9 17 1020.9 1021.0 7.8
30/11:00am 8.6 2.6 7.1 90 0.7 W 28 41 15 22 1020.9 1021.0 7.2
30/10:54am 8.9 3.8 7.7 92 0.6 W 24 39 13 21 1020.9 1021.0 6.2
30/10:30am 9.1 7.0 8.2 94 0.4 W 9 15 5 8 1021.0 1021.1 1.2
30/10:00am 9.1 5.4 8.0 93 0.5 WNW 17 28 9 15 1020.5 1020.6 0.0
30/09:30am 9.1 5.1 8.2 94 0.4 WNW 19 26 10 14 1020.3 1020.4 0.0
30/09:00am 9.2 5.1 8.6 96 0.3 W 20 41 11 22 1020.0 1020.1 2.0
30/08:30am 9.3 3.6 8.4 94 0.4 W 28 46 15 25 1019.6 1019.7 0.8
30/08:00am 10.4 4.9 7.6 83 1.3 WNW 26 43 14 23 1018.5 1018.6 0.2
30/07:30am 11.4 7.5 7.1 75 2.1 WNW 17 35 9 19 1017.9 1018.0 0.0
30/07:00am 11.3 7.2 6.4 72 2.3 NNW 17 26 9 14 1017.4 1017.5 0.0
30/06:30am 10.7 7.9 7.0 78 1.8 NW 11 20 6 11 1017.1 1017.2 0.0
30/06:00am 10.7 8.2 6.6 76 1.9 NW 9 17 5 9 1017.0 1017.1 0.0
30/05:30am 10.3 7.4 6.5 77 1.8 NW 11 20 6 11 1016.9 1017.0 0.0
30/05:00am 10.2 6.5 6.4 77 1.8 NW 15 24 8 13 1016.9 1017.0 0.0
30/04:30am 10.3 6.7 6.8 79 1.7 NNW 15 24 8 13 1016.9 1017.0 0.0
30/04:00am 10.6 6.9 6.2 74 2.1 NNW 15 24 8 13 1017.3 1017.4 0.0
30/03:30am 10.0 7.9 6.0 76 1.9 NW 6 13 3 7 1017.5 1017.6 0.0
30/03:00am 10.4 8.2 6.0 74 2.0 NW 7 13 4 7 1017.6 1017.7 0.0
30/02:30am 10.6 7.2 5.8 72 2.2 NNW 13 20 7 11 1017.8 1017.9 0.0
30/02:00am 10.3 7.7 5.9 74 2.0 NNW 9 15 5 8 1017.9 1018.0 0.0
30/01:30am 10.4 7.3 5.6 72 2.2 NW 11 22 6 12 1018.1 1018.2 0.0
30/01:00am 10.2 7.9 5.8 74 2.0 NW 7 17 4 9 1018.3 1018.4 0.0
30/12:30am 8.9 6.5 4.5 74 2.0 NNW 6 7 3 4 1018.5 1018.6 0.0
30/12:00am 8.3 6.3 4.5 77 1.7 NW 4 7 2 4 1018.7 1018.8 0.0
 
Date/Time
EST
Temp
°C
App
Temp
°C
Dew
Point
°C
Rel
Hum
%
Delta-T
°C
Wind Press
QNH
hPa
Press
MSL
hPa
Rain since
9am
mm
Dir  Spd
km/h
Gust
km/h
Spd
kts
Gust
kts
29/11:30pm 8.9 6.5 4.3 73 2.0 NNW 6 11 3 6 1018.8 1018.9 0.0
29/11:00pm 9.2 6.2 4.0 70 2.3 NNW 9 13 5 7 1018.9 1019.0 0.0
29/10:30pm 9.5 6.5 4.1 69 2.4 NNW 9 15 5 8 1019.0 1019.1 0.0
29/10:00pm 9.9 7.4 4.5 69 2.4 NNW 7 11 4 6 1019.2 1019.3 0.0
29/09:30pm 10.3 7.3 4.2 66 2.7 NNW 9 19 5 10 1019.4 1019.5 0.0
29/09:00pm 10.1 7.5 4.0 66 2.7 NW 7 13 4 7 1019.4 1019.5 0.0
29/08:30pm 10.7 7.3 4.0 63 3.0 NW 11 20 6 11 1019.5 1019.6 0.0
29/08:00pm 10.4 7.1 4.3 66 2.7 NW 11 20 6 11 1019.5 1019.6 0.0
29/07:30pm 10.3 7.1 4.9 69 2.5 WNW 11 17 6 9 1019.6 1019.7 0.0
29/07:00pm 9.6 7.5 5.8 77 1.7 WNW 6 9 3 5 1019.5 1019.6 0.0
29/06:30pm 8.9 6.7 5.5 79 1.5 NW 6 7 3 4 1019.4 1019.5 0.0
29/06:00pm 8.6 6.2 5.2 79 1.5 NW 7 11 4 6 1019.2 1019.3 0.0
29/05:30pm 8.9 6.7 5.3 78 1.6 NW 6 9 3 5 1019.1 1019.2 0.0
29/05:00pm 9.8 7.5 5.8 76 1.8 NW 7 13 4 7 1018.9 1019.0 0.0
29/04:30pm 10.6 8.4 6.0 73 2.1 WNW 7 13 4 7 1018.9 1019.0 0.0
29/04:00pm 11.1 8.1 5.8 70 2.5 WNW 11 22 6 12 1018.9 1019.0 0.0
29/03:30pm 11.1 8.9 6.3 72 2.3 WNW 7 15 4 8 1018.9 1019.0 0.0
29/03:00pm 11.1 7.3 5.6 69 2.5 WNW 15 22 8 12 1018.6 1018.7 0.0
29/02:30pm 12.1 8.8 6.6 69 2.6 WNW 13 19 7 10 1018.4 1018.5 0.0
29/02:00pm 11.7 7.7 6.8 72 2.3 WNW 17 24 9 13 1018.3 1018.4 0.0
29/01:30pm 12.1 8.2 7.2 72 2.4 WNW 17 28 9 15 1018.4 1018.5 0.0
29/01:00pm 11.6 8.0 6.7 72 2.3 WNW 15 24 8 13 1018.6 1018.7 0.0
29/12:30pm 10.9 6.5 6.5 74 2.1 WNW 19 30 10 16 1018.7 1018.8 0.0
29/12:00pm 10.7 6.6 6.1 73 2.1 WNW 17 30 9 16 1018.7 1018.8 0.0
29/11:30am 11.2 6.6 6.5 73 2.2 WNW 20 33 11 18 1018.8 1018.9 0.0
29/11:00am 10.8 6.2 6.7 76 1.9 WNW 20 35 11 19 1018.9 1019.0 0.0
29/10:30am 10.1 4.3 6.1 76 1.9 WNW 26 37 14 20 1018.8 1018.9 0.0
29/10:00am 9.6 5.0 5.8 77 1.7 WNW 19 30 10 16 1018.5 1018.6 0.0
29/09:30am 8.9 4.7 5.5 79 1.5 WNW 17 28 9 15 1018.3 1018.4 0.0
29/09:00am 8.8 4.6 5.7 81 1.4 WNW 17 24 9 13 1017.9 1018.0 8.6
29/08:30am 7.7 3.3 5.0 83 1.2 WNW 17 26 9 14 1017.6 1017.7 8.6
29/08:00am 7.1 2.7 4.6 84 1.1 WNW 17 28 9 15 1017.4 1017.5 8.6
29/07:30am 6.8 3.1 4.3 84 1.1 WNW 13 19 7 10 1017.0 1017.1 8.6
29/07:00am 6.4 2.7 4.2 86 0.9 WNW 13 22 7 12 1016.5 1016.5 8.6
29/06:30am 6.3 2.6 4.3 87 0.9 WNW 13 20 7 11 1016.1 1016.1 8.6
29/06:00am 6.3 3.4 4.6 89 0.7 WNW 9 17 5 9 1015.7 1015.7 8.6
29/05:30am 6.5 2.9 5.0 90 0.7 WNW 13 20 7 11 1015.5 1015.5 8.6
29/05:00am 6.6 1.8 4.9 89 0.7 WNW 19 30 10 16 1015.2 1015.2 8.6
29/04:30am 6.6 2.5 4.6 87 0.9 WNW 15 22 8 12 1014.8 1014.8 8.0
29/04:00am 6.4 2.7 4.6 88 0.8 WNW 13 20 7 11 1014.5 1014.5 8.0
29/03:30am 6.7 2.7 5.0 89 0.8 NW 15 26 8 14 1014.4 1014.4 8.0
29/03:00am 6.4 2.4 4.9 90 0.7 WNW 15 24 8 13 1014.2 1014.2 8.0
29/02:30am 6.5 2.9 5.0 90 0.7 WNW 13 19 7 10 1014.1 1014.1 8.0
29/02:00am 6.2 2.2 4.8 91 0.6 WNW 15 24 8 13 1013.8 1013.8 8.0
29/01:30am 6.3 2.3 5.1 92 0.5 WNW 15 24 8 13 1013.3 1013.4 8.0
29/01:00am 6.1 2.5 5.2 94 0.4 NW 13 20 7 11 1013.2 1013.3 8.0
29/12:30am 5.9 2.7 5.0 94 0.4 WNW 11 15 6 8 1013.1 1013.2 8.0
29/12:00am 6.0 2.0 5.0 93 0.4 WNW 15 24 8 13 1012.8 1012.9 8.0
 
Date/Time
EST
Temp
°C
App
Temp
°C
Dew
Point
°C
Rel
Hum
%
Delta-T
°C
Wind Press
QNH
hPa
Press
MSL
hPa
Rain since
9am
mm
Dir  Spd
km/h
Gust
km/h
Spd
kts
Gust
kts
28/11:30pm 6.2 1.4 4.7 90 0.7 W 19 30 10 16 1013.0 1013.1 6.2
28/11:00pm 7.3 3.2 4.6 83 1.2 WNW 15 24 8 13 1012.3 1012.4 3.2
28/10:30pm 7.3 2.8 4.4 82 1.3 WNW 17 33 9 18 1011.8 1011.9 3.2
28/10:00pm 7.4 3.0 4.5 82 1.3 WNW 17 30 9 16 1011.6 1011.7 3.2
28/09:30pm 7.1 3.0 4.4 83 1.2 WNW 15 26 8 14 1011.3 1011.4 3.2
28/09:00pm 7.6 3.6 4.9 83 1.2 WNW 15 24 8 13 1011.2 1011.3 3.2
28/08:30pm 7.6 3.2 4.7 82 1.3 WNW 17 28 9 15 1010.8 1010.9 3.2
28/08:00pm 7.1 3.4 4.6 84 1.1 WNW 13 26 7 14 1010.2 1010.2 3.2
28/07:30pm 7.2 3.6 5.0 86 1.0 WNW 13 20 7 11 1010.0 1010.0 3.2
28/07:00pm 7.4 4.0 5.9 90 0.7 NW 13 20 7 11 1009.5 1009.5 3.2
28/06:30pm 7.6 5.1 6.4 92 0.6 WNW 9 19 5 10 1009.1 1009.1 3.2
28/06:00pm 7.9 4.6 6.4 90 0.7 WNW 13 20 7 11 1008.9 1008.9 3.2
28/05:30pm 8.5 5.5 6.1 85 1.1 NW 11 20 6 11 1008.3 1008.3 2.4
28/05:00pm 8.3 5.4 6.3 87 0.9 WNW 11 17 6 9 1008.1 1008.1 2.4
28/04:30pm 8.0 5.4 6.1 88 0.9 NW 9 17 5 9 1007.9 1007.9 2.4
28/04:00pm 9.1 6.0 7.2 88 0.9 WNW 13 19 7 10 1007.5 1007.5 2.4
28/03:30pm 9.1 2.0 6.2 82 1.3 W 33 54 18 29 1006.9 1006.9 1.6
28/03:22pm 10.3 5.7 6.5 77 1.8 WNW 20 54 11 29 1006.6 1006.6 1.4
28/03:00pm 9.4 6.8 5.9 79 1.6 WNW 9 15 5 8 1006.4 1006.4 1.4
28/02:30pm 9.5 4.3 5.7 77 1.7 W 22 41 12 22 1006.3 1006.3 1.4
28/02:00pm 12.4 9.5 8.1 75 2.1 NW 13 24 7 13 1006.3 1006.3 0.8
28/01:30pm 12.8 8.8 8.3 74 2.2 WNW 19 33 10 18 1006.2 1006.2 0.8
28/01:00pm 11.7 7.8 8.6 81 1.6 WNW 19 35 10 19 1006.4 1006.4 0.8
28/12:30pm 9.7 5.4 8.0 89 0.8 W 20 30 11 16 1006.6 1006.6 0.8
28/12:00pm 11.7 7.3 7.2 74 2.2 WNW 20 30 11 16 1006.5 1006.5 0.0
28/11:30am 11.6 7.2 7.3 75 2.1 WNW 20 33 11 18 1006.9 1006.9 0.0
28/11:00am 11.8 6.9 7.1 73 2.3 WNW 22 35 12 19 1007.0 1007.0 0.0
28/10:30am 11.8 7.7 7.7 76 2.0 WNW 19 33 10 18 1007.0 1007.0 0.0
28/10:00am 11.2 6.8 7.5 78 1.8 WNW 20 32 11 17 1007.0 1007.0 0.0
28/09:30am 10.3 5.5 7.2 81 1.5 WNW 22 32 12 17 1006.8 1006.8 0.0
28/09:00am 10.3 6.6 7.9 85 1.2 WNW 17 24 9 13 1006.8 1006.8 8.4
28/08:30am 10.1 7.0 8.7 91 0.7 WNW 15 26 8 14 1006.6 1006.6 8.4
28/08:00am 9.7 6.5 8.6 93 0.5 WNW 15 26 8 14 1006.5 1006.5 8.4
28/07:30am 10.0 6.5 8.9 93 0.5 WNW 17 22 9 12 1006.4 1006.4 8.0
28/07:00am 10.0 6.9 8.8 92 0.6 WNW 15 20 8 11 1006.2 1006.2 8.0
28/06:30am 9.7 7.4 8.9 95 0.4 WNW 11 17 6 9 1006.1 1006.1 8.0
28/06:00am 9.4 7.8 8.8 96 0.3 W 7 11 4 6 1006.2 1006.2 7.6
28/05:30am 9.5 8.8 8.7 95 0.4 WNW 2 4 1 2 1006.2 1006.2 7.6
28/05:00am 9.6 8.2 8.8 95 0.4 NW 6 9 3 5 1005.9 1005.9 7.4
28/04:30am 9.5 8.1 8.7 95 0.4 W 6 9 3 5 1006.0 1006.0 7.4
28/04:00am 9.2 7.5 8.4 95 0.4 NW 7 11 4 6 1006.2 1006.2 7.4
28/03:30am 9.1 5.8 8.2 94 0.4 NW 15 28 8 15 1006.9 1006.9 7.2
28/03:00am 8.9 5.3 8.5 97 0.2 WNW 17 22 9 12 1007.4 1007.4 6.8
28/02:33am 8.9 3.2 8.3 96 0.3 W 28 46 15 25 1007.8 1007.8 6.2
28/02:30am 9.0 2.9 8.4 96 0.3 W 30 46 16 25 1007.8 1007.8 5.6
28/02:02am 13.8 9.5 7.1 64 3.3 NNW 19 76 10 41 1006.9 1006.9 0.0
28/02:00am 14.7 12.0 7.5 62 3.6 NNW 11 24 6 13 1006.3 1006.3 0.0
28/01:30am 14.6 12.7 7.4 62 3.6 N 7 15 4 8 1005.9 1005.9 0.0
28/01:00am 14.6 12.4 7.9 64 3.4 N 9 30 5 16 1006.6 1006.6 0.0
28/12:30am 15.0 12.6 7.1 59 3.9 N 9 15 5 8 1007.3 1007.3 0.0
28/12:00am 15.2 12.1 7.3 59 3.9 NNW 13 24 7 13 1007.8 1007.8 0.0
 
Date/Time
EST
Temp
°C
App
Temp
°C
Dew
Point
°C
Rel
Hum
%
Delta-T
°C
Wind Press
QNH
hPa
Press
MSL
hPa
Rain since
9am
mm
Dir  Spd
km/h
Gust
km/h
Spd
kts
Gust
kts
27/11:30pm 15.1 12.7 6.9 58 4.0 N 9 17 5 9 1008.2 1008.2 0.0
27/11:00pm 15.0 12.6 7.1 59 3.9 NNW 9 17 5 9 1008.6 1008.6 0.0
27/10:30pm 15.1 12.4 7.2 59 3.9 NNW 11 20 6 11 1008.9 1008.9 0.0
27/10:00pm 14.9 13.1 7.0 59 3.9 N 6 15 3 8 1009.2 1009.2 0.0
27/09:30pm 14.9 13.1 7.2 60 3.8 N 6 11 3 6 1009.6 1009.6 0.0
27/09:00pm 15.2 13.2 7.3 59 3.9 N 7 13 4 7 1010.0 1010.0 0.0
27/08:30pm 15.0 12.7 7.5 61 3.7 N 9 13 5 7 1010.2 1010.2 0.0
27/08:00pm 14.1 12.4 7.4 64 3.3 NNE 6 9 3 5 1010.7 1010.8 0.0
27/07:30pm 13.6 12.2 7.4 66 3.1 NE 4 9 2 5 1011.0 1011.1 0.0
27/07:00pm 14.1 12.3 7.2 63 3.4 NE 6 9 3 5 1011.3 1011.4 0.0
27/06:30pm 14.8 12.9 6.6 58 4.0 N 6 7 3 4 1011.5 1011.6 0.0
27/06:00pm 14.3 12.2 6.6 60 3.8 NNW 7 13 4 7 1011.7 1011.8 0.0
27/05:30pm 14.7 13.1 6.3 57 4.1 N 4 9 2 5 1011.6 1011.7 0.0

Other Formats:

Comma delimited format used in spreadsheet applications
http://www.bom.gov.au/fwo/IDV60801/IDV60801.99806.axf

JavaScript Object Notation format (JSON) in row-major order
http://www.bom.gov.au/fwo/IDV60801/IDV60801.99806.json